createdAt,value
2022-12-15T00:02:25.719Z,40.43
2022-12-15T00:05:11.172Z,45.27
2022-12-15T00:07:56.298Z,45.03
2022-12-15T00:10:41.698Z,40.57
2022-12-15T00:13:30.358Z,34.60
2022-12-15T00:16:15.883Z,46.00
2022-12-15T00:19:01.191Z,32.37
2022-12-15T00:21:46.799Z,43.40
2022-12-15T00:24:31.708Z,31.80
2022-12-15T00:27:16.854Z,43.37
2022-12-15T00:30:02.122Z,40.63
2022-12-15T00:32:47.021Z,34.73
2022-12-15T00:35:32.194Z,42.53
2022-12-15T00:38:17.576Z,44.53
2022-12-15T00:40:44.016Z,45.50
2022-12-15T00:43:12.026Z,35.43
2022-12-15T00:45:57.330Z,37.60
2022-12-15T00:48:23.755Z,41.20
2022-12-15T00:50:53.335Z,43.70
2022-12-15T00:53:39.086Z,38.57
2022-12-15T00:56:24.197Z,41.60
2022-12-15T00:59:09.396Z,40.53
2022-12-15T01:01:54.957Z,38.80
2022-12-15T01:04:40.115Z,40.50
2022-12-15T01:07:25.408Z,39.27
2022-12-15T01:10:10.432Z,41.30
2022-12-15T01:12:55.613Z,34.23
2022-12-15T01:15:40.707Z,39.37
2022-12-15T01:18:25.640Z,38.17
2022-12-15T01:20:58.760Z,35.47
2022-12-15T01:23:25.549Z,38.40
2022-12-15T01:25:52.482Z,40.30
2022-12-15T01:28:19.700Z,40.37
2022-12-15T01:30:46.092Z,38.30
2022-12-15T01:33:12.596Z,40.20
2022-12-15T01:35:39.259Z,41.30
2022-12-15T01:38:05.819Z,46.40
2022-12-15T01:40:47.486Z,47.10
2022-12-15T01:43:15.692Z,53.10
2022-12-15T01:45:49.868Z,56.37
2022-12-15T01:48:23.267Z,52.33
2022-12-15T01:50:57.434Z,56.77
2022-12-15T01:53:24.133Z,64.97
2022-12-15T01:55:50.735Z,61.70
2022-12-15T01:58:18.438Z,58.40
2022-12-15T02:00:44.933Z,49.73
2022-12-15T02:03:11.999Z,66.27
2022-12-15T02:05:39.838Z,67.30
2022-12-15T02:08:06.779Z,56.77
2022-12-15T02:10:55.069Z,63.17
2022-12-15T02:13:49.732Z,70.00
2022-12-15T02:16:26.032Z,66.47
2022-12-15T02:18:59.017Z,66.10
2022-12-15T02:21:41.999Z,71.87
2022-12-15T02:24:14.626Z,67.40
2022-12-15T02:26:57.587Z,63.73
2022-12-15T02:29:42.905Z,54.90
2022-12-15T02:32:11.312Z,66.60
2022-12-15T02:34:37.726Z,72.20
2022-12-15T02:37:06.068Z,69.90
2022-12-15T02:39:32.486Z,67.60
2022-12-15T02:41:58.910Z,74.87
2022-12-15T02:44:28.625Z,72.27
2022-12-15T02:47:13.678Z,67.60
2022-12-15T02:49:40.039Z,67.70
2022-12-15T02:52:06.414Z,75.73
2022-12-15T02:54:48.703Z,70.00
2022-12-15T02:57:34.975Z,68.40
2022-12-15T03:00:02.404Z,75.70
2022-12-15T03:02:31.192Z,73.33
2022-12-15T03:04:58.343Z,72.93
2022-12-15T03:07:27.725Z,80.07
2022-12-15T03:10:01.210Z,77.63
2022-12-15T03:12:27.675Z,74.43
2022-12-15T03:14:54.086Z,88.97
2022-12-15T03:17:20.480Z,86.90
2022-12-15T03:19:47.093Z,79.43
2022-12-15T03:22:16.364Z,80.83
2022-12-15T03:24:42.791Z,78.13
2022-12-15T03:27:09.251Z,86.37
2022-12-15T03:29:35.620Z,87.07
2022-12-15T03:32:02.144Z,87.90
2022-12-15T03:34:28.761Z,86.03
2022-12-15T03:36:55.163Z,87.87
2022-12-15T03:39:21.580Z,89.63
2022-12-15T03:41:47.994Z,95.57
2022-12-15T03:44:14.420Z,92.17
2022-12-15T03:46:40.920Z,88.67
2022-12-15T03:49:07.584Z,84.73
2022-12-15T03:51:34.019Z,85.97
2022-12-15T03:54:00.494Z,88.27
2022-12-15T03:56:26.951Z,88.63
2022-12-15T03:58:53.363Z,92.33
2022-12-15T04:01:29.519Z,91.17
2022-12-15T04:04:00.514Z,92.73
2022-12-15T04:06:27.935Z,73.93
2022-12-15T04:08:54.366Z,92.60
2022-12-15T04:11:20.832Z,96.03
2022-12-15T04:13:47.478Z,93.00
2022-12-15T04:16:19.564Z,94.73
2022-12-15T04:18:46.704Z,87.87
2022-12-15T04:21:13.146Z,90.30
2022-12-15T04:23:39.570Z,79.40
2022-12-15T04:26:24.861Z,92.27
2022-12-15T04:29:10.063Z,97.67
2022-12-15T04:31:55.241Z,89.53
2022-12-15T04:34:42.047Z,90.40
2022-12-15T04:37:29.083Z,99.70
2022-12-15T04:40:14.311Z,91.77
2022-12-15T04:43:01.068Z,99.07
2022-12-15T04:45:46.100Z,91.47
2022-12-15T04:48:31.461Z,79.13
2022-12-15T04:51:16.246Z,87.00
2022-12-15T04:54:01.846Z,93.63
2022-12-15T04:56:46.886Z,93.50
2022-12-15T04:59:35.206Z,101.27
2022-12-15T05:02:20.497Z,93.77
2022-12-15T05:05:05.785Z,96.10
2022-12-15T05:07:51.058Z,86.47
2022-12-15T05:10:36.227Z,91.80
2022-12-15T05:13:24.858Z,96.30
2022-12-15T05:16:10.064Z,94.23
2022-12-15T05:18:55.641Z,100.07
2022-12-15T05:21:40.769Z,78.90
2022-12-15T05:24:26.030Z,98.97
2022-12-15T05:27:10.936Z,96.20
2022-12-15T05:29:56.171Z,100.07
2022-12-15T05:32:23.648Z,87.67
2022-12-15T05:34:50.199Z,90.93
2022-12-15T05:37:16.732Z,93.93
2022-12-15T05:39:43.217Z,87.30
2022-12-15T05:42:09.671Z,87.83
2022-12-15T05:44:36.100Z,78.47
2022-12-15T05:47:02.558Z,82.90
2022-12-15T05:49:29.137Z,76.80
2022-12-15T05:51:57.899Z,82.40
2022-12-15T05:54:24.398Z,86.37
2022-12-15T05:56:50.863Z,63.50
2022-12-15T05:59:17.592Z,66.20
2022-12-15T06:01:44.195Z,80.03
2022-12-15T06:04:12.643Z,69.67
2022-12-15T06:06:39.824Z,86.50
2022-12-15T06:09:06.302Z,87.37
2022-12-15T06:11:32.778Z,78.63
2022-12-15T06:13:59.262Z,73.87
2022-12-15T06:16:30.411Z,78.97
2022-12-15T06:18:58.751Z,90.60
2022-12-15T06:21:28.902Z,80.57
2022-12-15T06:23:56.004Z,65.53
2022-12-15T06:26:25.665Z,78.17
2022-12-15T06:28:52.784Z,71.90
2022-12-15T06:31:22.840Z,70.87
2022-12-15T06:33:51.042Z,60.50
2022-12-15T06:36:19.049Z,65.00
2022-12-15T06:38:46.232Z,59.37
2022-12-15T06:41:17.611Z,61.53
2022-12-15T06:43:51.611Z,56.27
2022-12-15T06:46:18.787Z,49.40
2022-12-15T06:48:46.138Z,53.43
2022-12-15T06:51:17.117Z,52.27
2022-12-15T06:53:54.082Z,52.10
2022-12-15T06:56:30.616Z,53.10
2022-12-15T06:58:59.996Z,50.67
2022-12-15T07:01:28.076Z,46.17
2022-12-15T07:03:55.374Z,47.17
2022-12-15T07:06:24.957Z,52.37
2022-12-15T07:08:52.543Z,58.57
2022-12-15T07:11:20.755Z,56.30
2022-12-15T07:13:53.660Z,56.10
2022-12-15T07:16:21.314Z,60.27
2022-12-15T07:18:47.813Z,59.17
2022-12-15T07:21:14.392Z,60.97
2022-12-15T07:23:54.176Z,51.20
2022-12-15T07:26:21.822Z,64.37
2022-12-15T07:28:48.302Z,45.60
2022-12-15T07:31:15.617Z,53.73
2022-12-15T07:33:42.503Z,51.50
2022-12-15T07:36:09.092Z,53.17
2022-12-15T07:38:35.884Z,43.40
2022-12-15T07:41:03.695Z,55.77
2022-12-15T07:43:31.385Z,54.60
2022-12-15T07:45:58.551Z,43.63
2022-12-15T07:48:25.378Z,54.90
2022-12-15T07:51:04.958Z,48.90
2022-12-15T07:53:34.984Z,55.80
2022-12-15T07:56:10.134Z,48.77
2022-12-15T07:58:38.590Z,58.47
2022-12-15T08:01:06.729Z,55.57
2022-12-15T08:03:34.669Z,61.90
2022-12-15T08:06:05.719Z,54.83
2022-12-15T08:08:33.428Z,62.20
2022-12-15T08:11:03.809Z,71.10
2022-12-15T08:14:01.329Z,75.53
2022-12-15T08:16:17.194Z,78.47
2022-12-15T08:18:43.776Z,64.23
2022-12-15T08:21:10.675Z,69.00
2022-12-15T08:23:37.734Z,89.90
2022-12-15T08:26:06.117Z,66.43
2022-12-15T08:28:32.943Z,81.00
2022-12-15T08:31:07.003Z,86.50
2022-12-15T08:33:34.244Z,86.20
2022-12-15T08:36:02.974Z,95.03
2022-12-15T08:38:30.029Z,90.07
2022-12-15T08:40:57.094Z,87.77
2022-12-15T08:43:23.932Z,89.93
2022-12-15T08:45:50.486Z,89.50
2022-12-15T08:48:17.215Z,84.00
2022-12-15T08:50:46.885Z,69.03
2022-12-15T08:53:30.828Z,88.50
2022-12-15T08:56:08.163Z,89.60
2022-12-15T08:58:34.813Z,90.80
2022-12-15T09:01:06.475Z,96.00
2022-12-15T09:03:34.293Z,87.63
2022-12-15T09:06:05.579Z,91.57
2022-12-15T09:08:32.518Z,72.00
2022-12-15T09:10:59.574Z,81.70
2022-12-15T09:13:26.431Z,79.30
2022-12-15T09:16:12.496Z,67.67
2022-12-15T09:18:41.189Z,89.93
2022-12-15T09:21:08.785Z,86.53
2022-12-15T09:23:36.626Z,85.97
2022-12-15T09:26:04.898Z,82.60
2022-12-15T09:28:32.090Z,85.87
2022-12-15T09:31:03.222Z,85.40
2022-12-15T09:33:30.169Z,85.37
2022-12-15T09:35:57.024Z,74.07
2022-12-15T09:38:24.629Z,85.47
2022-12-15T09:40:51.345Z,88.43
2022-12-15T09:43:34.481Z,81.27
2022-12-15T09:46:05.875Z,85.60
2022-12-15T09:48:36.469Z,84.60
2022-12-15T09:51:04.406Z,79.50
2022-12-15T09:53:54.294Z,79.47
2022-12-15T09:56:20.774Z,80.67
2022-12-15T09:58:57.402Z,73.33
2022-12-15T10:01:30.165Z,83.23
2022-12-15T10:04:05.409Z,80.37
2022-12-15T10:06:52.093Z,81.93
2022-12-15T10:09:20.843Z,86.93
2022-12-15T10:11:52.104Z,88.57
2022-12-15T10:14:30.477Z,90.17
2022-12-15T10:17:00.187Z,89.43
2022-12-15T10:19:29.679Z,89.40
2022-12-15T10:21:57.619Z,88.70
2022-12-15T10:25:07.378Z,94.73
2022-12-15T10:27:18.407Z,87.30
2022-12-15T10:29:50.874Z,86.17
2022-12-15T10:32:21.343Z,76.20
2022-12-15T10:34:49.011Z,78.20
2022-12-15T10:37:18.589Z,77.27
2022-12-15T10:39:47.093Z,87.90
2022-12-15T10:42:20.918Z,79.50
2022-12-15T10:44:51.534Z,79.50
2022-12-15T10:47:18.076Z,83.30
2022-12-15T10:49:45.967Z,81.73
2022-12-15T10:52:32.337Z,79.03
2022-12-15T10:54:58.953Z,80.40
2022-12-15T10:57:30.855Z,86.63
2022-12-15T11:00:19.007Z,89.63
2022-12-15T11:02:45.659Z,87.47
2022-12-15T11:05:15.936Z,84.73
2022-12-15T11:07:44.651Z,78.47
2022-12-15T11:10:25.151Z,65.63
2022-12-15T11:13:01.972Z,69.23
2022-12-15T11:15:40.029Z,69.93
2022-12-15T11:18:25.439Z,67.77
2022-12-15T11:21:01.407Z,74.97
2022-12-15T11:23:46.634Z,67.43
2022-12-15T11:26:30.985Z,74.57
2022-12-15T11:29:02.692Z,88.17
2022-12-15T11:31:33.010Z,79.53
2022-12-15T11:34:00.914Z,75.23
2022-12-15T11:36:30.519Z,78.50
2022-12-15T11:39:04.150Z,85.20
2022-12-15T11:41:50.552Z,74.10
2022-12-15T11:44:29.378Z,78.47
2022-12-15T11:47:05.269Z,74.23
2022-12-15T11:49:58.458Z,75.53
2022-12-15T11:52:39.778Z,74.63
2022-12-15T11:58:24.290Z,79.83
2022-12-15T12:00:55.618Z,67.97
2022-12-15T12:03:26.318Z,66.47
2022-12-15T12:06:07.659Z,64.97
2022-12-15T12:08:51.378Z,60.97
2022-12-15T12:11:56.494Z,59.70
2022-12-15T12:14:41.282Z,65.17
2022-12-15T12:17:16.533Z,64.17
2022-12-15T12:19:45.863Z,67.20
2022-12-15T12:22:28.159Z,57.97
2022-12-15T12:25:06.874Z,63.43
2022-12-15T12:27:41.350Z,61.10
2022-12-15T12:30:23.933Z,61.83
2022-12-15T12:33:11.640Z,66.43
2022-12-15T12:35:42.458Z,61.73
2022-12-15T12:38:13.311Z,59.30
2022-12-15T12:40:41.440Z,72.80
2022-12-15T12:43:13.653Z,61.17
2022-12-15T12:45:40.839Z,71.37
2022-12-15T12:48:09.760Z,68.10
2022-12-15T12:50:36.264Z,65.00
2022-12-15T12:53:03.335Z,64.77
2022-12-15T12:55:37.717Z,73.20
2022-12-15T12:58:04.356Z,69.00
2022-12-15T13:00:31.784Z,65.07
2022-12-15T13:03:19.712Z,64.53
2022-12-15T13:05:50.383Z,64.13
2022-12-15T13:08:19.060Z,70.80
2022-12-15T13:10:47.252Z,65.07
2022-12-15T13:13:29.506Z,69.33
2022-12-15T13:16:06.021Z,62.87
2022-12-15T13:18:52.497Z,64.87
2022-12-15T13:21:45.230Z,64.57
2022-12-15T13:24:32.089Z,63.77
2022-12-15T13:27:13.694Z,58.37
2022-12-15T13:29:58.994Z,58.33
2022-12-15T13:32:33.343Z,62.53
2022-12-15T13:35:06.086Z,59.53
2022-12-15T13:37:51.191Z,62.20
2022-12-15T13:40:26.760Z,58.90
2022-12-15T13:42:58.838Z,58.40
2022-12-15T13:45:41.962Z,58.23
2022-12-15T13:48:14.264Z,61.77
2022-12-15T13:50:45.676Z,71.53
2022-12-15T13:53:20.960Z,70.60
2022-12-15T13:55:58.358Z,63.07
2022-12-15T13:58:25.868Z,60.40
2022-12-15T14:00:54.455Z,65.63
2022-12-15T14:03:21.401Z,63.27
2022-12-15T14:05:59.314Z,63.83
2022-12-15T14:08:27.428Z,67.77
2022-12-15T14:10:57.356Z,58.77
2022-12-15T14:13:31.522Z,60.53
2022-12-15T14:15:59.689Z,65.50
2022-12-15T14:18:31.147Z,61.13
2022-12-15T14:20:58.247Z,58.07
2022-12-15T14:23:31.525Z,61.20
2022-12-15T14:26:04.766Z,66.50
2022-12-15T14:28:33.991Z,62.73
2022-12-15T14:31:03.489Z,60.40
2022-12-15T14:33:31.709Z,63.40
2022-12-15T14:35:59.672Z,60.37
2022-12-15T14:38:27.814Z,67.57
2022-12-15T14:40:56.205Z,62.33
2022-12-15T14:43:24.771Z,61.33
2022-12-15T14:45:54.146Z,60.97
2022-12-15T14:48:42.416Z,77.13
2022-12-15T14:51:11.039Z,61.33
2022-12-15T14:53:39.108Z,76.63
2022-12-15T14:56:12.889Z,72.93
2022-12-15T14:58:39.895Z,75.17
2022-12-15T15:01:24.523Z,71.50
2022-12-15T15:03:06.970Z,76.47
2022-12-15T15:04:02.574Z,75.03
2022-12-15T15:06:37.018Z,73.13
2022-12-15T15:09:24.172Z,79.57
2022-12-15T15:11:54.619Z,70.07
2022-12-15T15:14:26.726Z,68.97
2022-12-15T15:16:59.275Z,59.27
2022-12-15T15:19:25.845Z,75.47
2022-12-15T15:21:52.414Z,59.73
2022-12-15T15:24:39.523Z,65.50
2022-12-15T15:27:25.024Z,69.27
2022-12-15T15:29:55.440Z,75.47
2022-12-15T15:32:22.967Z,66.23
2022-12-15T15:34:49.771Z,68.73
2022-12-15T15:37:20.999Z,69.87
2022-12-15T15:39:48.461Z,69.47
2022-12-15T15:42:15.138Z,79.17
2022-12-15T15:44:43.178Z,73.40
2022-12-15T15:47:18.047Z,78.93
2022-12-15T15:49:45.363Z,74.10
2022-12-15T15:52:12.854Z,71.30
2022-12-15T15:54:39.485Z,75.13
2022-12-15T15:57:05.971Z,76.17
2022-12-15T15:59:32.642Z,80.83
2022-12-15T16:01:59.788Z,69.20
2022-12-15T16:04:26.446Z,86.67
2022-12-15T16:06:53.278Z,86.23
2022-12-15T16:09:19.939Z,91.87
2022-12-15T16:11:46.522Z,92.20
2022-12-15T16:14:14.294Z,91.43
2022-12-15T16:16:41.903Z,91.20
2022-12-15T16:19:08.542Z,99.20
2022-12-15T16:21:35.487Z,80.93
2022-12-15T16:24:17.674Z,86.20
2022-12-15T16:26:47.255Z,82.07
2022-12-15T16:29:18.570Z,84.83
2022-12-15T16:31:45.868Z,84.47
2022-12-15T16:34:12.963Z,86.87
2022-12-15T16:36:39.847Z,75.90
2022-12-15T16:39:18.226Z,72.57
2022-12-15T16:41:44.862Z,76.27
2022-12-15T16:44:11.463Z,82.33
2022-12-15T16:46:38.443Z,84.77
2022-12-15T16:49:05.243Z,66.87
2022-12-15T16:51:37.569Z,78.47
2022-12-15T16:54:04.207Z,75.43
2022-12-15T16:56:30.718Z,79.27
2022-12-15T16:59:30.924Z,83.83
2022-12-15T17:01:46.699Z,83.10
2022-12-15T17:04:13.847Z,76.40
2022-12-15T17:06:40.414Z,66.67
2022-12-15T17:09:08.831Z,83.47
2022-12-15T17:11:38.457Z,81.57
2022-12-15T17:14:06.790Z,77.30
2022-12-15T17:16:33.438Z,80.07
2022-12-15T17:18:59.917Z,87.43
2022-12-15T17:21:28.706Z,83.73
2022-12-15T17:23:56.614Z,84.93
2022-12-15T17:26:30.684Z,85.30
2022-12-15T17:28:59.673Z,81.53
2022-12-15T17:31:35.230Z,71.67
2022-12-15T17:34:13.511Z,83.00
2022-12-15T17:36:40.160Z,76.33
2022-12-15T17:39:09.741Z,84.23
2022-12-15T17:41:58.781Z,78.37
2022-12-15T17:44:32.889Z,67.67
2022-12-15T17:47:01.333Z,80.57
2022-12-15T17:49:34.700Z,82.13
2022-12-15T17:52:03.092Z,75.63
2022-12-15T17:54:29.742Z,83.60
2022-12-15T17:56:56.138Z,78.57
2022-12-15T17:59:22.833Z,81.03
2022-12-15T18:01:49.457Z,82.23
2022-12-15T18:04:16.173Z,80.07
2022-12-15T18:06:44.026Z,64.13
2022-12-15T18:09:13.933Z,83.77
2022-12-15T18:11:40.545Z,78.37
2022-12-15T18:14:14.668Z,80.63
2022-12-15T18:16:41.514Z,84.27
2022-12-15T18:19:08.210Z,84.97
2022-12-15T18:21:34.799Z,64.23
2022-12-15T18:24:01.387Z,75.57
2022-12-15T18:26:28.059Z,86.97
2022-12-15T18:28:54.580Z,84.93
2022-12-15T18:31:25.749Z,66.67
2022-12-15T18:33:52.973Z,80.50
2022-12-15T18:36:20.206Z,80.90
2022-12-15T18:38:46.640Z,79.07
2022-12-15T18:41:14.026Z,82.80
2022-12-15T18:43:41.217Z,78.57
2022-12-15T18:46:13.895Z,78.63
2022-12-15T18:48:40.946Z,77.60
2022-12-15T18:51:17.919Z,76.33
2022-12-15T18:53:45.015Z,73.40
2022-12-15T18:56:13.599Z,69.57
2022-12-15T18:58:40.279Z,79.80
2022-12-15T19:01:07.414Z,80.73
2022-12-15T19:03:35.710Z,72.97
2022-12-15T19:06:26.166Z,86.03
2022-12-15T19:08:52.847Z,79.13
2022-12-15T19:11:22.038Z,84.27
2022-12-15T19:13:50.923Z,81.03
2022-12-15T19:16:18.948Z,83.83
2022-12-15T19:19:04.396Z,74.00
2022-12-15T19:21:50.716Z,78.93
2022-12-15T19:24:47.554Z,73.07
2022-12-15T19:27:16.135Z,71.57
2022-12-15T19:29:43.044Z,78.63
2022-12-15T19:32:09.563Z,75.50
2022-12-15T19:34:36.084Z,85.00
2022-12-15T19:37:03.674Z,82.47
2022-12-15T19:39:32.548Z,78.83
2022-12-15T19:41:59.233Z,71.70
2022-12-15T19:44:26.268Z,78.20
2022-12-15T19:46:52.792Z,85.27
2022-12-15T19:49:19.415Z,85.20
2022-12-15T19:51:46.127Z,79.93
2022-12-15T19:54:17.154Z,79.00
2022-12-15T19:56:44.056Z,83.93
2022-12-15T19:59:22.331Z,87.60
2022-12-15T20:01:51.712Z,81.07
2022-12-15T20:04:22.423Z,70.17
2022-12-15T20:06:50.585Z,76.97
2022-12-15T20:09:20.476Z,77.50
2022-12-15T20:11:47.025Z,82.33
2022-12-15T20:14:14.690Z,71.67
2022-12-15T20:16:41.308Z,68.87
2022-12-15T20:19:07.772Z,80.47
2022-12-15T20:21:35.726Z,70.37
2022-12-15T20:24:07.576Z,74.50
2022-12-15T20:26:34.819Z,77.17
2022-12-15T20:29:01.434Z,67.80
2022-12-15T20:31:28.146Z,90.20
2022-12-15T20:33:54.655Z,87.13
2022-12-15T20:36:24.586Z,94.00
2022-12-15T20:38:51.845Z,99.23
2022-12-15T20:41:19.920Z,103.23
2022-12-15T20:43:46.523Z,78.23
2022-12-15T20:46:19.374Z,92.20
2022-12-15T20:48:46.353Z,89.13
2022-12-15T20:51:15.693Z,76.63
2022-12-15T20:53:43.776Z,90.20
2022-12-15T20:56:10.540Z,90.87
2022-12-15T20:58:39.934Z,90.87
2022-12-15T21:01:20.484Z,78.97
2022-12-15T21:03:47.744Z,66.57
2022-12-15T21:06:14.666Z,87.67
2022-12-15T21:08:41.403Z,76.10
2022-12-15T21:11:15.638Z,78.30
2022-12-15T21:13:42.228Z,76.67
2022-12-15T21:16:14.517Z,77.13
2022-12-15T21:19:11.358Z,77.10
2022-12-15T21:21:34.974Z,77.53
2022-12-15T21:24:05.084Z,73.30
2022-12-15T21:26:32.230Z,78.40
2022-12-15T21:28:59.395Z,73.53
2022-12-15T21:31:26.158Z,79.93
2022-12-15T21:33:53.001Z,74.13
2022-12-15T21:36:21.577Z,77.23
2022-12-15T21:38:51.893Z,69.97
2022-12-15T21:41:19.441Z,74.27
2022-12-15T21:43:46.684Z,71.03
2022-12-15T21:46:14.994Z,68.27
2022-12-15T21:49:00.662Z,78.80
2022-12-15T21:51:28.435Z,63.37
2022-12-15T21:53:55.054Z,77.23
2022-12-15T21:56:21.565Z,76.40
2022-12-15T21:58:51.024Z,68.37
2022-12-15T22:01:27.638Z,61.80
2022-12-15T22:03:55.447Z,79.50
2022-12-15T22:06:27.362Z,75.20
2022-12-15T22:08:54.732Z,68.50
2022-12-15T22:11:23.216Z,75.53
2022-12-15T22:13:50.418Z,71.50
2022-12-15T22:16:18.126Z,77.63
2022-12-15T22:18:48.546Z,61.87
2022-12-15T22:21:15.549Z,58.23
2022-12-15T22:23:42.063Z,82.73
2022-12-15T22:26:15.456Z,67.40
2022-12-15T22:28:41.975Z,71.83
2022-12-15T22:31:09.317Z,68.53
2022-12-15T22:33:35.801Z,72.40
2022-12-15T22:36:02.251Z,70.07
2022-12-15T22:38:29.012Z,68.90
2022-12-15T22:40:57.104Z,71.90
2022-12-15T22:43:36.061Z,71.90
2022-12-15T22:46:03.491Z,68.10
2022-12-15T22:48:33.000Z,71.53
2022-12-15T22:51:00.317Z,71.17
2022-12-15T22:53:29.324Z,62.60
2022-12-15T22:55:55.919Z,76.77
2022-12-15T22:58:25.749Z,77.83
2022-12-15T23:00:56.606Z,58.10
2022-12-15T23:03:23.388Z,73.87
2022-12-15T23:05:49.975Z,65.07
2022-12-15T23:08:16.462Z,68.33
2022-12-15T23:11:01.772Z,68.23
2022-12-15T23:13:28.198Z,66.73
2022-12-15T23:16:13.609Z,67.50
2022-12-15T23:18:40.107Z,55.30
2022-12-15T23:21:08.094Z,65.90
2022-12-15T23:23:35.373Z,66.87
2022-12-15T23:26:02.112Z,59.30
2022-12-15T23:28:28.609Z,63.07
2022-12-15T23:30:55.572Z,64.40
2022-12-15T23:33:22.238Z,71.07
2022-12-15T23:35:48.732Z,61.13
2022-12-15T23:38:15.824Z,70.43
2022-12-15T23:40:49.565Z,62.07
2022-12-15T23:43:19.481Z,67.30
2022-12-15T23:45:46.240Z,66.00
2022-12-15T23:48:13.741Z,57.73
2022-12-15T23:50:40.183Z,67.20
2022-12-15T23:53:07.168Z,69.67
2022-12-15T23:55:35.372Z,66.20
2022-12-15T23:58:01.899Z,68.30
